ADDS TAF Data INFO
IDs: Format: Raw Decoded Include METARs

Data at: 0942 UTC 20 Nov 2017

KHOB 200935Z AUTO 24007KT 10SM CLR 00/M06 A3008 RMK AO2

KHOB 200520Z 2006/2106 20010KT P6SM SCT250